createdAt,value
2023-01-11T00:00:57.875Z,5.80
2023-01-11T00:06:01.585Z,5.90
2023-01-11T00:11:13.737Z,5.90
2023-01-11T00:16:18.961Z,5.80
2023-01-11T00:21:23.386Z,5.80
2023-01-11T00:26:26.717Z,5.90
2023-01-11T00:31:33.540Z,5.90
2023-01-11T00:36:36.921Z,5.90
2023-01-11T00:42:03.311Z,6.00
2023-01-11T00:47:31.454Z,5.90
2023-01-11T00:52:36.039Z,5.90
2023-01-11T00:57:46.166Z,6.00
2023-01-11T01:02:51.582Z,6.20
2023-01-11T01:07:55.041Z,6.30
2023-01-11T01:13:15.720Z,6.30
2023-01-11T01:18:20.717Z,6.20
2023-01-11T01:23:25.041Z,6.30
2023-01-11T01:28:29.347Z,6.40
2023-01-11T01:33:33.943Z,6.50
2023-01-11T01:38:47.071Z,6.60
2023-01-11T01:43:54.545Z,6.40
2023-01-11T01:49:05.188Z,6.40
2023-01-11T01:54:21.614Z,6.30
2023-01-11T01:59:27.517Z,6.20
2023-01-11T02:04:40.316Z,6.10
2023-01-11T02:09:47.858Z,6.00
2023-01-11T02:14:55.536Z,6.20
2023-01-11T02:20:09.268Z,6.30
2023-01-11T02:25:44.232Z,6.40
2023-01-11T02:30:56.978Z,6.40
2023-01-11T02:36:09.796Z,6.30
2023-01-11T02:41:22.982Z,6.30
2023-01-11T02:46:34.041Z,6.40
2023-01-11T02:51:43.854Z,6.60
2023-01-11T02:56:50.857Z,6.70
2023-01-11T03:01:59.935Z,6.60
2023-01-11T03:07:20.978Z,6.50
2023-01-11T03:12:55.059Z,6.60
2023-01-11T03:18:10.663Z,6.60
2023-01-11T03:23:22.945Z,6.60
2023-01-11T03:28:33.595Z,6.60
2023-01-11T03:33:44.416Z,6.70
2023-01-11T03:38:53.286Z,6.80
2023-01-11T03:43:59.293Z,6.90
2023-01-11T03:49:09.845Z,7.00
2023-01-11T03:54:24.779Z,7.00
2023-01-11T03:59:28.767Z,7.00
2023-01-11T04:04:33.610Z,7.10
2023-01-11T04:09:39.308Z,7.10
2023-01-11T04:14:43.619Z,7.10
2023-01-11T04:19:48.354Z,7.10
2023-01-11T04:24:52.662Z,7.20
2023-01-11T04:29:56.031Z,7.20
2023-01-11T04:35:00.664Z,7.20
2023-01-11T04:40:04.524Z,7.20
2023-01-11T04:45:08.839Z,7.30
2023-01-11T04:50:20.890Z,7.50
2023-01-11T04:55:27.409Z,7.50
2023-01-11T05:00:30.864Z,7.60
2023-01-11T05:05:40.468Z,7.40
2023-01-11T05:10:44.835Z,7.40
2023-01-11T05:15:53.221Z,7.40
2023-01-11T05:20:57.865Z,7.50
2023-01-11T05:26:05.948Z,7.40
2023-01-11T05:31:09.455Z,7.50
2023-01-11T05:36:17.908Z,7.40
2023-01-11T05:41:23.331Z,7.30
2023-01-11T05:46:27.869Z,7.10
2023-01-11T05:51:34.953Z,7.00
2023-01-11T05:56:38.342Z,6.90
2023-01-11T06:01:41.657Z,6.90
2023-01-11T06:06:48.394Z,7.20
2023-01-11T06:11:55.873Z,7.40
2023-01-11T06:17:03.004Z,7.60
2023-01-11T06:22:15.526Z,7.70
2023-01-11T06:27:19.907Z,7.90
2023-01-11T06:32:23.235Z,7.90
2023-01-11T06:37:28.965Z,7.80
2023-01-11T06:42:32.271Z,7.70
2023-01-11T06:47:35.479Z,7.70
2023-01-11T06:53:05.311Z,7.60
2023-01-11T06:58:09.621Z,7.40
2023-01-11T07:03:13.850Z,7.30
2023-01-11T07:08:18.594Z,7.40
2023-01-11T07:13:22.432Z,7.50
2023-01-11T07:18:25.776Z,7.50
2023-01-11T07:23:30.423Z,7.40
2023-01-11T07:28:33.711Z,7.50
2023-01-11T07:33:36.988Z,7.50
2023-01-11T07:38:42.144Z,7.70
2023-01-11T07:43:45.475Z,7.80
2023-01-11T07:48:51.995Z,7.80
2023-01-11T07:53:56.660Z,8.00
2023-01-11T07:59:00.029Z,8.30
2023-01-11T08:04:03.366Z,8.40
2023-01-11T08:09:08.352Z,8.50
2023-01-11T08:14:33.819Z,8.50
2023-01-11T08:19:37.835Z,8.80
2023-01-11T08:24:42.459Z,9.00
2023-01-11T08:29:45.677Z,9.20
2023-01-11T08:34:49.108Z,9.20
2023-01-11T08:39:55.923Z,9.40
2023-01-11T08:45:00.258Z,9.30
2023-01-11T08:50:03.549Z,9.30
2023-01-11T08:55:08.997Z,9.20
2023-01-11T09:00:13.581Z,9.30
2023-01-11T09:05:18.272Z,9.20
2023-01-11T09:10:26.900Z,9.20
2023-01-11T09:15:30.380Z,9.30
2023-01-11T09:20:33.668Z,9.40
2023-01-11T09:25:38.254Z,9.50
2023-01-11T09:30:41.543Z,9.60
2023-01-11T09:35:46.335Z,9.60
2023-01-11T09:40:59.970Z,9.80
2023-01-11T09:46:09.222Z,9.80
2023-01-11T09:51:15.966Z,9.70
2023-01-11T09:56:27.472Z,9.80
2023-01-11T10:01:39.043Z,9.90
2023-01-11T10:06:53.265Z,9.80
2023-01-11T10:18:39.290Z,9.80
2023-01-11T10:23:15.793Z,9.80
2023-01-11T10:28:29.518Z,9.90
2023-01-11T10:34:06.017Z,9.90
2023-01-11T10:39:35.853Z,10.00
2023-01-11T10:44:47.277Z,10.10
2023-01-11T10:49:55.149Z,10.10
2023-01-11T10:55:03.100Z,10.30
2023-01-11T11:01:08.726Z,10.50
2023-01-11T11:06:19.828Z,10.60
2023-01-11T11:11:55.998Z,10.70
2023-01-11T11:17:18.400Z,10.70
2023-01-11T11:22:22.067Z,10.70
2023-01-11T11:28:08.214Z,10.60
2023-01-11T11:33:20.546Z,10.60
2023-01-11T11:38:25.641Z,10.60
2023-01-11T11:43:33.001Z,10.70
2023-01-11T11:48:37.918Z,10.90
2023-01-11T11:53:44.499Z,11.10
2023-01-11T11:58:48.338Z,11.00
2023-01-11T12:03:55.807Z,11.00
2023-01-11T12:09:02.805Z,10.80
2023-01-11T12:14:18.133Z,10.70
2023-01-11T12:19:43.545Z,10.50
2023-01-11T12:24:47.934Z,10.60
2023-01-11T12:30:08.487Z,10.50
2023-01-11T12:35:35.488Z,10.60
2023-01-11T12:40:50.639Z,10.60
2023-01-11T12:46:02.349Z,10.40
2023-01-11T12:51:19.455Z,10.30
2023-01-11T12:56:41.638Z,10.20
2023-01-11T13:01:56.208Z,10.00
2023-01-11T13:07:19.935Z,9.90
2023-01-11T13:12:30.634Z,9.70
2023-01-11T13:17:41.914Z,9.70
2023-01-11T13:22:51.900Z,9.60
2023-01-11T13:27:58.216Z,9.60
2023-01-11T13:33:07.707Z,9.50
2023-01-11T13:38:26.422Z,9.50
2023-01-11T13:43:40.015Z,9.40
2023-01-11T13:48:47.378Z,9.40
2023-01-11T13:54:01.359Z,9.40
2023-01-11T13:59:10.239Z,9.40
2023-01-11T14:04:21.577Z,9.40
2023-01-11T14:09:53.448Z,9.30
2023-01-11T14:15:18.873Z,9.30
2023-01-11T14:20:29.368Z,9.20
2023-01-11T14:25:38.989Z,9.30
2023-01-11T14:31:05.848Z,9.40
2023-01-11T14:36:30.544Z,9.30
2023-01-11T14:42:12.130Z,9.30
2023-01-11T14:47:45.846Z,9.20
2023-01-11T14:52:54.780Z,9.10
2023-01-11T14:58:16.576Z,9.00
2023-01-11T15:03:49.284Z,8.90
2023-01-11T15:08:56.423Z,8.90
2023-01-11T15:14:04.940Z,8.80
2023-01-11T15:19:34.250Z,8.60
2023-01-11T15:24:44.203Z,8.50
2023-01-11T15:29:55.745Z,8.30
2023-01-11T15:35:31.726Z,8.20
2023-01-11T15:40:40.430Z,8.10
2023-01-11T15:46:29.789Z,8.10
2023-01-11T15:51:54.794Z,8.00
2023-01-11T15:57:54.163Z,7.90
2023-01-11T16:03:39.906Z,7.80
2023-01-11T16:08:56.666Z,7.70
2023-01-11T16:14:30.936Z,7.60
2023-01-11T16:19:44.147Z,7.60
2023-01-11T16:24:56.858Z,7.50
2023-01-11T16:30:18.913Z,7.50
2023-01-11T16:35:24.665Z,7.40
2023-01-11T16:40:37.593Z,7.30
2023-01-11T16:45:43.074Z,7.30
2023-01-11T16:51:01.890Z,7.20
2023-01-11T16:56:08.764Z,7.20
2023-01-11T17:01:15.363Z,7.20
2023-01-11T17:06:20.893Z,7.20
2023-01-11T17:11:34.084Z,7.30
2023-01-11T17:16:40.167Z,7.20
2023-01-11T17:21:50.022Z,7.30
2023-01-11T17:27:01.015Z,7.30
2023-01-11T17:32:08.864Z,7.50
2023-01-11T17:37:20.837Z,7.60
2023-01-11T17:43:06.146Z,7.50
2023-01-11T17:48:15.123Z,7.60
2023-01-11T17:53:50.462Z,7.50
2023-01-11T17:59:17.158Z,7.40
2023-01-11T18:04:24.881Z,7.50
2023-01-11T18:09:49.386Z,7.40
2023-01-11T18:15:01.002Z,7.30
2023-01-11T18:20:25.931Z,7.30
2023-01-11T18:25:32.123Z,7.20
2023-01-11T18:30:42.338Z,7.10
2023-01-11T18:35:58.006Z,6.80
2023-01-11T18:41:45.306Z,6.70
2023-01-11T18:46:50.255Z,6.70
2023-01-11T18:51:54.062Z,6.60
2023-01-11T18:57:14.233Z,6.50
2023-01-11T19:03:04.385Z,6.50
2023-01-11T19:08:33.187Z,6.40
2023-01-11T19:13:59.178Z,6.10
2023-01-11T19:24:31.707Z,5.60
2023-01-11T19:29:52.942Z,5.50
2023-01-11T19:35:08.222Z,5.60
2023-01-11T19:40:15.139Z,5.70
2023-01-11T19:45:25.564Z,5.60
2023-01-11T19:50:29.120Z,5.70
2023-01-11T19:55:33.990Z,5.70
2023-01-11T20:00:37.460Z,5.80
2023-01-11T20:05:41.853Z,5.70
2023-01-11T20:10:51.200Z,5.60
2023-01-11T20:15:58.777Z,5.60
2023-01-11T20:21:02.489Z,5.50
2023-01-11T20:26:14.891Z,5.60
2023-01-11T20:31:18.676Z,5.60
2023-01-11T20:36:23.996Z,5.60
2023-01-11T20:41:48.909Z,5.40
2023-01-11T20:46:53.588Z,5.20
2023-01-11T20:51:58.530Z,5.20
2023-01-11T20:57:12.740Z,5.10
2023-01-11T21:02:20.804Z,5.00
2023-01-11T21:07:26.528Z,4.90
2023-01-11T21:17:46.286Z,4.60
2023-01-11T21:22:51.212Z,4.50
2023-01-11T21:27:57.754Z,4.50
2023-01-11T21:33:01.167Z,4.20
2023-01-11T21:38:04.477Z,4.10
2023-01-11T21:43:14.957Z,3.90
2023-01-11T21:48:18.221Z,4.10
2023-01-11T21:53:30.402Z,4.50
2023-01-11T21:58:40.075Z,4.50
2023-01-11T22:03:53.564Z,4.50
2023-01-11T22:08:56.910Z,4.40
2023-01-11T22:14:02.593Z,4.40
2023-01-11T22:19:10.460Z,4.50
2023-01-11T22:24:14.075Z,4.60
2023-01-11T22:29:29.731Z,4.50
2023-01-11T22:34:40.549Z,4.40
2023-01-11T22:39:43.821Z,4.30
2023-01-11T22:44:53.508Z,4.50
2023-01-11T22:49:56.963Z,4.60
2023-01-11T22:55:04.874Z,4.70
2023-01-11T23:00:13.441Z,4.80
2023-01-11T23:05:23.872Z,4.80
2023-01-11T23:10:27.223Z,4.70
2023-01-11T23:15:33.203Z,4.60
2023-01-11T23:20:38.495Z,4.60
2023-01-11T23:25:42.837Z,4.50
2023-01-11T23:30:47.719Z,4.40
2023-01-11T23:35:57.151Z,4.30
2023-01-11T23:41:24.065Z,4.40
2023-01-11T23:46:46.578Z,4.40
2023-01-11T23:51:50.222Z,4.10
2023-01-11T23:56:55.738Z,4.10
